Time;durP1;ratioP1;P1;durP2;ratioP2;P2;SDS_P1;SDS_P2;PMS_P1;PMS_P2;Temp;Humidity;BMP_temperature;BMP_pressure;BME280_temperature;BME280_humidity;BME280_pressure;Samples;Min_cycle;Max_cycle;Signal;HPM_P1;HPM_P2
2023/04/25 00:01:51;;;;;;;8.43;3.47;;;;;;;;;;4991258;28;20058;-62
2023/04/25 00:04:21;;;;;;;14.77;3.75;;;;;;;;;;4971473;28;20054;-61
2023/04/25 00:06:52;;;;;;;10.38;3.65;;;;;;;;;;5033104;28;20422;-63
2023/04/25 00:09:23;;;;;;;10.35;3.55;;;;;;;;;;4981510;28;20563;-62
2023/04/25 00:11:53;;;;;;;11.05;3.65;;;;;;;;;;4998120;28;20049;-64
2023/04/25 00:14:23;;;;;;;9.95;3.20;;;;;;;;;;5014457;28;20057;-62
2023/04/25 00:16:54;;;;;;;9.60;3.47;;;;;;;;;;5033087;28;20065;-62
2023/04/25 00:19:24;;;;;;;9.20;3.13;;;;;;;;;;5032427;28;20041;-64
2023/04/25 00:21:55;;;;;;;10.88;3.70;;;;;;;;;;4997774;28;20057;-63
2023/04/25 00:24:25;;;;;;;15.23;4.00;;;;;;;;;;5030134;28;20076;-62
2023/04/25 00:26:55;;;;;;;13.98;4.68;;;;;;;;;;4997489;28;20391;-62
2023/04/25 00:29:25;;;;;;;9.15;3.70;;;;;;;;;;5032765;28;20449;-62
2023/04/25 00:31:56;;;;;;;8.85;3.95;;;;;;;;;;5032391;28;20046;-63
2023/04/25 00:34:26;;;;;;;13.00;3.28;;;;;;;;;;5010064;28;20072;-62
2023/04/25 00:36:58;;;;;;;8.20;3.47;;;;;;;;;;5009846;28;20061;-62
2023/04/25 00:39:28;;;;;;;8.27;3.30;;;;;;;;;;4951643;29;20051;-66
2023/04/25 00:42:01;;;;;;;9.82;3.28;;;;;;;;;;4898163;29;20083;-62
2023/04/25 00:44:32;;;;;;;8.48;3.60;;;;;;;;;;4845817;29;20065;-63
2023/04/25 00:47:04;;;;;;;7.22;3.03;;;;;;;;;;4876103;29;20064;-61
2023/04/25 00:49:34;;;;;;;10.05;3.33;;;;;;;;;;4894573;29;20052;-62
2023/04/25 00:52:05;;;;;;;8.18;3.13;;;;;;;;;;4894435;29;20060;-62
2023/04/25 00:54:36;;;;;;;4.57;2.03;;;;;;;;;;4894429;29;20079;-62
2023/04/25 00:57:07;;;;;;;6.53;2.08;;;;;;;;;;4894651;29;20080;-63
2023/04/25 00:59:38;;;;;;;6.40;1.85;;;;;;;;;;4849193;29;20577;-61
2023/04/25 01:02:09;;;;;;;4.38;1.60;;;;;;;;;;4909323;29;20081;-61
2023/04/25 01:04:40;;;;;;;3.95;1.85;;;;;;;;;;4894681;29;20175;-61
2023/04/25 01:07:11;;;;;;;6.68;2.60;;;;;;;;;;4894302;29;20086;-62
2023/04/25 01:09:41;;;;;;;6.05;1.63;;;;;;;;;;4895028;29;20048;-62
2023/04/25 01:12:12;;;;;;;6.95;1.98;;;;;;;;;;4862131;29;20069;-63
2023/04/25 01:14:42;;;;;;;4.05;1.70;;;;;;;;;;4867757;29;20052;-63
2023/04/25 01:17:12;;;;;;;5.15;2.10;;;;;;;;;;4888514;29;20527;-62
2023/04/25 01:19:42;;;;;;;4.53;1.77;;;;;;;;;;4909322;29;20531;-63
2023/04/25 01:22:12;;;;;;;2.88;1.40;;;;;;;;;;4949260;29;20058;-62
2023/04/25 01:24:43;;;;;;;6.45;1.60;;;;;;;;;;4951200;28;20128;-62
2023/04/25 01:27:14;;;;;;;3.38;1.48;;;;;;;;;;4933354;29;20058;-62
2023/04/25 01:29:44;;;;;;;5.40;1.77;;;;;;;;;;4873336;29;20058;-64
2023/04/25 01:32:15;;;;;;;5.38;1.70;;;;;;;;;;4942525;28;20761;-61
2023/04/25 01:34:46;;;;;;;6.25;1.60;;;;;;;;;;4907586;29;20124;-61
2023/04/25 01:37:17;;;;;;;4.70;1.60;;;;;;;;;;4909638;28;20055;-61
2023/04/25 01:39:48;;;;;;;3.25;1.40;;;;;;;;;;4877068;29;20088;-62
2023/04/25 01:42:19;;;;;;;3.67;1.55;;;;;;;;;;4878017;29;20051;-62
2023/04/25 01:44:49;;;;;;;6.95;1.77;;;;;;;;;;4889126;29;20405;-62
2023/04/25 01:47:20;;;;;;;2.95;1.30;;;;;;;;;;4893532;29;20053;-63
2023/04/25 01:49:50;;;;;;;2.85;1.58;;;;;;;;;;4893874;29;20417;-62
2023/04/25 01:52:19;;;;;;;4.18;1.90;;;;;;;;;;4893147;29;20465;-62
2023/04/25 01:54:51;;;;;;;4.53;1.65;;;;;;;;;;4902691;29;20059;-62
2023/04/25 01:57:21;;;;;;;3.20;1.50;;;;;;;;;;4893444;29;20063;-66
2023/04/25 01:59:51;;;;;;;3.65;1.67;;;;;;;;;;4886966;29;20072;-62
2023/04/25 02:02:39;;;;;;;6.43;1.60;;;;;;;;;;4880681;29;20060;-62
2023/04/25 02:05:21;;;;;;;2.95;1.52;;;;;;;;;;4830060;29;20129;-62
2023/04/25 02:07:52;;;;;;;4.47;1.98;;;;;;;;;;4789592;29;20385;-62
2023/04/25 02:10:26;;;;;;;3.90;1.30;;;;;;;;;;4819480;29;20054;-62
2023/04/25 02:13:09;;;;;;;3.15;1.65;;;;;;;;;;4799397;29;20062;-63
2023/04/25 02:15:50;;;;;;;3.13;1.42;;;;;;;;;;4765114;30;20059;-62
2023/04/25 02:18:21;;;;;;;7.07;1.98;;;;;;;;;;4767737;29;20062;-62
2023/04/25 02:20:51;;;;;;;5.40;1.77;;;;;;;;;;4834988;29;20054;-63
2023/04/25 02:23:21;;;;;;;5.80;1.60;;;;;;;;;;4792267;29;20050;-62
2023/04/25 02:25:52;;;;;;;4.85;2.05;;;;;;;;;;4810099;29;20061;-65
2023/04/25 02:28:23;;;;;;;4.00;1.58;;;;;;;;;;4871687;29;20415;-62
2023/04/25 02:30:53;;;;;;;5.78;1.88;;;;;;;;;;4829512;29;20080;-62
2023/04/25 02:33:25;;;;;;;3.95;1.85;;;;;;;;;;4855896;29;20054;-62
2023/04/25 02:35:55;;;;;;;7.32;2.03;;;;;;;;;;4829320;29;20514;-63
2023/04/25 02:38:25;;;;;;;6.53;1.55;;;;;;;;;;4874690;29;20049;-66
2023/04/25 02:40:57;;;;;;;5.57;2.05;;;;;;;;;;4855756;29;20056;-63
2023/04/25 02:43:29;;;;;;;5.13;2.20;;;;;;;;;;4856020;29;20061;-63
2023/04/25 02:45:59;;;;;;;6.97;2.20;;;;;;;;;;4851445;29;20053;-62
2023/04/25 02:48:29;;;;;;;3.13;1.42;;;;;;;;;;4789300;29;20593;-62
2023/04/25 02:50:59;;;;;;;3.60;1.60;;;;;;;;;;4781720;29;20507;-62
2023/04/25 02:53:30;;;;;;;3.65;2.00;;;;;;;;;;4801305;29;20054;-64
2023/04/25 02:56:00;;;;;;;8.80;2.17;;;;;;;;;;4810459;29;20055;-64
2023/04/25 02:58:30;;;;;;;5.45;1.88;;;;;;;;;;4818467;29;20061;-63
2023/04/25 03:01:01;;;;;;;9.68;2.50;;;;;;;;;;4828293;29;20488;-63
2023/04/25 03:03:31;;;;;;;5.05;1.95;;;;;;;;;;4785827;29;20055;-62
2023/04/25 03:06:02;;;;;;;5.65;2.10;;;;;;;;;;4809907;29;20062;-62
2023/04/25 03:08:34;;;;;;;6.18;1.70;;;;;;;;;;4819102;29;20062;-62
2023/04/25 03:11:04;;;;;;;4.25;1.73;;;;;;;;;;4836996;29;20545;-63
2023/04/25 03:13:35;;;;;;;4.22;1.90;;;;;;;;;;4837214;29;20054;-62
2023/04/25 03:16:06;;;;;;;6.45;2.15;;;;;;;;;;4818903;29;20065;-62
2023/04/25 03:18:36;;;;;;;6.13;2.08;;;;;;;;;;4837030;29;20503;-62
2023/04/25 03:21:06;;;;;;;4.95;2.42;;;;;;;;;;4852630;29;20414;-63
2023/04/25 03:23:38;;;;;;;;;;;;;;;;;;4828411;29;20050;-63
2023/04/25 03:26:09;;;;;;;3.17;1.83;;;;;;;;;;4837063;29;19947;-62
2023/04/25 03:28:40;;;;;;;6.72;2.42;;;;;;;;;;4819934;29;20098;-62
2023/04/25 03:31:10;;;;;;;7.45;2.00;;;;;;;;;;4765243;30;20687;-62
2023/04/25 03:33:40;;;;;;;7.30;2.00;;;;;;;;;;4776878;30;20059;-61
2023/04/25 03:36:12;;;;;;;3.63;2.03;;;;;;;;;;4758946;30;20060;-61
2023/04/25 03:38:42;;;;;;;5.85;2.28;;;;;;;;;;4726526;30;20060;-65
2023/04/25 03:41:14;;;;;;;4.88;1.98;;;;;;;;;;4705890;30;20066;-61
2023/04/25 03:43:52;;;;;;;4.18;1.85;;;;;;;;;;4714950;30;20053;-62
2023/04/25 03:46:22;;;;;;;5.85;2.30;;;;;;;;;;4714774;30;20061;-64
2023/04/25 03:48:52;;;;;;;7.50;2.10;;;;;;;;;;4724365;30;20064;-61
2023/04/25 03:51:28;;;;;;;7.80;2.33;;;;;;;;;;4714768;30;20561;-63
2023/04/25 03:53:58;;;;;;;4.85;1.83;;;;;;;;;;4714724;30;20418;-62
2023/04/25 03:56:52;;;;;;;3.90;2.30;;;;;;;;;;4697895;30;20400;-61
2023/04/25 03:59:25;;;;;;;;;;;;;;;;;;4715072;30;20092;-61
2023/04/25 04:01:56;;;;;;;4.63;2.05;;;;;;;;;;4731569;30;20375;-61
2023/04/25 04:04:26;;;;;;;4.10;2.00;;;;;;;;;;4728345;30;20074;-62
2023/04/25 04:06:57;;;;;;;4.82;1.83;;;;;;;;;;4718866;30;20178;-62
2023/04/25 04:09:31;;;;;;;4.22;1.70;;;;;;;;;;4731949;30;20065;-61
2023/04/25 04:12:09;;;;;;;3.20;1.70;;;;;;;;;;4687068;30;20060;-62
2023/04/25 04:14:41;;;;;;;4.28;2.00;;;;;;;;;;4696672;30;20054;-63
2023/04/25 04:17:11;;;;;;;5.75;2.63;;;;;;;;;;4714116;30;20543;-63
2023/04/25 04:19:41;;;;;;;6.07;2.33;;;;;;;;;;4728521;30;20061;-62
2023/04/25 04:22:19;;;;;;;4.25;1.92;;;;;;;;;;4767104;30;20062;-62
2023/04/25 04:24:50;;;;;;;4.10;2.58;;;;;;;;;;4766889;30;20157;-62
2023/04/25 04:27:25;;;;;;;5.68;1.73;;;;;;;;;;4797090;29;20058;-62
2023/04/25 04:30:08;;;;;;;6.05;2.65;;;;;;;;;;4770639;29;21075;-62
2023/04/25 04:32:48;;;;;;;4.15;1.67;;;;;;;;;;4802356;29;20066;-62
2023/04/25 04:35:18;;;;;;;5.95;2.00;;;;;;;;;;4706827;30;20056;-62
2023/04/25 04:37:50;;;;;;;4.60;2.20;;;;;;;;;;4734309;30;20628;-63
2023/04/25 04:40:22;;;;;;;7.45;2.08;;;;;;;;;;4751057;30;20501;-62
2023/04/25 04:43:05;;;;;;;5.82;1.70;;;;;;;;;;4748430;30;20063;-63
2023/04/25 04:45:47;;;;;;;6.40;1.90;;;;;;;;;;4779134;30;20052;-63
2023/04/25 04:48:41;;;;;;;3.85;1.58;;;;;;;;;;4755904;30;20071;-65
2023/04/25 04:51:31;;;;;;;4.60;1.85;;;;;;;;;;4766590;30;20056;-65
2023/04/25 04:54:11;;;;;;;4.95;1.83;;;;;;;;;;4752708;30;20056;-63
2023/04/25 04:57:10;;;;;;;5.35;2.00;;;;;;;;;;4774137;30;20059;-63
2023/04/25 04:59:59;;;;;;;3.85;1.67;;;;;;;;;;4797120;29;20067;-63
2023/04/25 05:02:56;;;;;;;5.88;1.67;;;;;;;;;;4785941;29;20051;-62
2023/04/25 05:05:42;;;;;;;6.00;1.90;;;;;;;;;;4778880;29;20060;-62
2023/04/25 05:08:30;;;;;;;3.78;1.92;;;;;;;;;;4766930;30;20055;-62
2023/04/25 05:11:26;;;;;;;4.95;2.17;;;;;;;;;;4798173;29;20055;-63
2023/04/25 05:14:14;;;;;;;4.30;1.70;;;;;;;;;;4820187;29;20055;-62
2023/04/25 05:17:08;;;;;;;5.88;1.80;;;;;;;;;;4819927;29;20055;-62
2023/04/25 05:19:47;;;;;;;4.78;2.40;;;;;;;;;;4815924;29;20419;-62
2023/04/25 05:22:38;;;;;;;3.60;1.75;;;;;;;;;;4821116;29;20081;-62
2023/04/25 05:25:13;;;;;;;7.72;1.63;;;;;;;;;;4813323;29;20046;-62
2023/04/25 05:28:05;;;;;;;3.78;1.83;;;;;;;;;;4821080;29;20062;-62
2023/04/25 05:30:49;;;;;;;4.32;2.13;;;;;;;;;;4820210;29;20065;-61
2023/04/25 05:33:42;;;;;;;4.90;1.65;;;;;;;;;;4811535;29;20050;-61
2023/04/25 05:36:12;;;;;;;4.25;1.70;;;;;;;;;;4798470;29;20059;-62
2023/04/25 05:38:43;;;;;;;2.67;1.45;;;;;;;;;;4748175;30;20056;-62
2023/04/25 05:41:21;;;;;;;;;;;;;;;;;;4734554;30;20072;-63
2023/04/25 05:44:17;;;;;;;3.47;2.00;;;;;;;;;;4748376;30;20365;-62
2023/04/25 05:47:07;;;;;;;3.83;1.70;;;;;;;;;;4730850;30;20057;-61
2023/04/25 05:49:56;;;;;;;5.85;1.80;;;;;;;;;;4765586;30;20050;-62
2023/04/25 05:53:02;;;;;;;4.72;2.13;;;;;;;;;;4740703;30;20136;-62
2023/04/25 05:55:43;;;;;;;8.13;2.20;;;;;;;;;;4730279;30;20565;-61
2023/04/25 05:58:25;;;;;;;6.45;1.90;;;;;;;;;;4721315;30;20056;-62
2023/04/25 06:00:56;;;;;;;3.80;1.70;;;;;;;;;;4750585;30;20051;-62
2023/04/25 06:03:26;;;;;;;6.45;1.63;;;;;;;;;;4738608;30;20047;-61
2023/04/25 06:05:58;;;;;;;8.85;1.90;;;;;;;;;;4776276;30;20056;-63
2023/04/25 06:08:28;;;;;;;3.92;1.50;;;;;;;;;;4747697;30;20075;-61
2023/04/25 06:10:58;;;;;;;4.32;1.70;;;;;;;;;;4756160;30;20052;-62
2023/04/25 06:13:28;;;;;;;3.85;1.45;;;;;;;;;;4750421;30;20059;-62
2023/04/25 06:15:59;;;;;;;3.20;1.60;;;;;;;;;;4771275;30;20075;-61
2023/04/25 06:18:30;;;;;;;6.97;2.08;;;;;;;;;;4773597;29;20503;-61
2023/04/25 06:21:00;;;;;;;3.63;2.17;;;;;;;;;;4779703;29;20070;-62
2023/04/25 06:23:33;;;;;;;3.90;1.58;;;;;;;;;;4801000;29;20593;-62
2023/04/25 06:26:07;;;;;;;3.92;1.60;;;;;;;;;;4802455;29;20878;-62
2023/04/25 06:28:40;;;;;;;3.22;1.60;;;;;;;;;;4846960;29;20051;-62
2023/04/25 06:31:10;;;;;;;3.90;1.60;;;;;;;;;;4804072;29;20059;-63
2023/04/25 06:33:42;;;;;;;6.32;1.42;;;;;;;;;;4800852;29;20057;-63
2023/04/25 06:36:12;;;;;;;4.43;1.40;;;;;;;;;;4782957;29;20048;-63
2023/04/25 06:38:44;;;;;;;4.07;1.60;;;;;;;;;;4783029;29;20055;-62
2023/04/25 06:41:14;;;;;;;4.80;1.90;;;;;;;;;;4792640;29;20065;-62
2023/04/25 06:43:45;;;;;;;5.88;1.83;;;;;;;;;;4810838;29;20062;-64
2023/04/25 06:46:17;;;;;;;5.90;1.90;;;;;;;;;;4819324;29;20055;-63
2023/04/25 06:48:50;;;;;;;5.35;1.40;;;;;;;;;;4798440;29;20063;-62
2023/04/25 06:51:21;;;;;;;7.25;1.63;;;;;;;;;;4824524;29;20062;-62
2023/04/25 06:53:54;;;;;;;2.90;1.30;;;;;;;;;;4793338;29;20058;-68
2023/04/25 06:56:30;;;;;;;6.47;1.70;;;;;;;;;;4811391;29;20443;-62
2023/04/25 06:59:11;;;;;;;4.03;1.17;;;;;;;;;;4837338;29;20058;-62
2023/04/25 07:01:43;;;;;;;2.92;1.17;;;;;;;;;;4837303;29;20069;-63
2023/04/25 07:04:19;;;;;;;3.65;1.55;;;;;;;;;;4820722;29;20058;-62
2023/04/25 07:06:53;;;;;;;5.40;1.65;;;;;;;;;;4791072;29;20051;-63
2023/04/25 07:09:33;;;;;;;2.85;1.45;;;;;;;;;;4772043;30;20056;-64
2023/04/25 07:12:04;;;;;;;2.55;1.45;;;;;;;;;;4754622;30;20414;-62
2023/04/25 07:14:35;;;;;;;6.57;1.65;;;;;;;;;;4750799;30;20068;-63
2023/04/25 07:17:06;;;;;;;2.85;1.33;;;;;;;;;;4701918;30;20061;-62
2023/04/25 07:19:38;;;;;;;3.78;1.50;;;;;;;;;;4715265;30;20061;-66
2023/04/25 07:22:09;;;;;;;4.20;1.90;;;;;;;;;;4778307;29;20387;-65
2023/04/25 07:24:42;;;;;;;3.90;1.65;;;;;;;;;;4791382;29;20051;-62
2023/04/25 07:27:14;;;;;;;5.55;1.50;;;;;;;;;;4781719;29;20059;-62
2023/04/25 07:30:03;;;;;;;3.45;1.52;;;;;;;;;;4758509;30;20064;-62
2023/04/25 07:32:34;;;;;;;4.32;1.65;;;;;;;;;;4767468;30;20445;-62
2023/04/25 07:35:06;;;;;;;5.15;1.90;;;;;;;;;;4804686;29;20054;-63
2023/04/25 07:37:37;;;;;;;2.35;1.40;;;;;;;;;;4834662;29;20057;-67
2023/04/25 07:40:16;;;;;;;2.83;1.52;;;;;;;;;;4839998;29;20525;-63
2023/04/25 07:42:50;;;;;;;4.60;1.40;;;;;;;;;;4810528;29;20050;-64
2023/04/25 07:45:28;;;;;;;6.28;1.25;;;;;;;;;;4839976;29;20053;-63
2023/04/25 07:47:58;;;;;;;3.17;1.40;;;;;;;;;;4836097;29;20058;-65
2023/04/25 07:50:31;;;;;;;6.35;1.52;;;;;;;;;;4837273;29;20059;-63
2023/04/25 07:53:01;;;;;;;1.58;1.08;;;;;;;;;;4794480;29;20051;-63
2023/04/25 07:55:39;;;;;;;3.75;1.20;;;;;;;;;;4821232;29;20183;-64
2023/04/25 07:58:15;;;;;;;3.83;1.52;;;;;;;;;;4839654;29;20574;-65
2023/04/25 08:00:46;;;;;;;2.72;0.98;;;;;;;;;;4828491;29;20450;-64
2023/04/25 08:03:32;;;;;;;4.20;1.15;;;;;;;;;;4821206;29;20062;-63
2023/04/25 08:06:05;;;;;;;3.40;1.27;;;;;;;;;;4803336;29;20051;-62
2023/04/25 08:08:46;;;;;;;4.28;1.17;;;;;;;;;;4839390;29;20134;-63
2023/04/25 08:11:19;;;;;;;2.58;1.20;;;;;;;;;;4787955;29;20055;-63
2023/04/25 08:13:50;;;;;;;3.25;1.10;;;;;;;;;;4786322;29;20062;-63
2023/04/25 08:16:20;;;;;;;1.52;1.00;;;;;;;;;;4765784;29;20063;-62
2023/04/25 08:18:51;;;;;;;3.88;1.60;;;;;;;;;;4784801;30;20059;-63
2023/04/25 08:21:21;;;;;;;2.45;1.33;;;;;;;;;;4755302;30;20106;-68
2023/04/25 08:23:53;;;;;;;6.22;1.60;;;;;;;;;;4752763;30;20399;-63
2023/04/25 08:26:29;;;;;;;4.53;1.20;;;;;;;;;;4775688;30;20066;-63
2023/04/25 08:29:00;;;;;;;2.03;1.23;;;;;;;;;;4781467;30;20048;-63
2023/04/25 08:31:30;;;;;;;2.25;1.10;;;;;;;;;;4762907;30;20062;-68
2023/04/25 08:34:03;;;;;;;3.40;1.10;;;;;;;;;;4802687;29;20139;-62
2023/04/25 08:36:41;;;;;;;3.17;0.90;;;;;;;;;;4774251;30;20575;-62
2023/04/25 08:39:21;;;;;;;4.88;1.40;;;;;;;;;;4769088;30;20051;-67
2023/04/25 08:42:12;;;;;;;2.30;1.10;;;;;;;;;;4791097;29;20066;-64
2023/04/25 08:44:43;;;;;;;3.92;1.13;;;;;;;;;;4768839;30;20083;-63
2023/04/25 08:47:13;;;;;;;2.00;1.05;;;;;;;;;;4766510;29;20056;-65
2023/04/25 08:49:53;;;;;;;;;;;;;;;;;;4777105;29;20078;-64
2023/04/25 08:52:24;;;;;;;5.63;1.13;;;;;;;;;;4743072;30;19949;-62
2023/04/25 08:54:55;;;;;;;3.88;1.45;;;;;;;;;;4802556;29;20066;-62
2023/04/25 08:57:26;;;;;;;3.80;1.45;;;;;;;;;;4784319;30;20178;-63
2023/04/25 08:59:58;;;;;;;2.88;1.85;;;;;;;;;;4820441;29;20427;-62
2023/04/25 09:02:29;;;;;;;2.58;1.20;;;;;;;;;;4805477;29;20149;-64
2023/04/25 09:05:00;;;;;;;4.07;1.48;;;;;;;;;;4838608;29;20057;-62
2023/04/25 09:07:30;;;;;;;3.65;1.45;;;;;;;;;;4854378;29;20069;-65
2023/04/25 09:10:03;;;;;;;4.38;1.40;;;;;;;;;;4817953;29;20061;-64
2023/04/25 09:12:37;;;;;;;4.63;1.50;;;;;;;;;;4753740;30;20075;-63
2023/04/25 09:15:11;;;;;;;4.45;1.40;;;;;;;;;;4798187;29;20082;-60
2023/04/25 09:17:58;;;;;;;2.67;1.17;;;;;;;;;;4797420;29;20619;-65
2023/04/25 09:20:42;;;;;;;6.30;1.30;;;;;;;;;;4774569;30;20572;-61
2023/04/25 09:23:41;;;;;;;3.05;1.73;;;;;;;;;;4801274;29;20531;-62
2023/04/25 09:26:16;;;;;;;3.78;1.27;;;;;;;;;;4837858;29;20056;-61
2023/04/25 09:28:48;;;;;;;4.10;1.38;;;;;;;;;;4856607;29;20064;-62
2023/04/25 09:31:25;;;;;;;2.10;1.20;;;;;;;;;;4835562;29;20495;-62
2023/04/25 09:34:02;;;;;;;3.45;1.08;;;;;;;;;;4819594;29;20530;-61
2023/04/25 09:36:42;;;;;;;3.97;1.38;;;;;;;;;;4801580;29;20054;-60
2023/04/25 09:39:33;;;;;;;2.72;1.00;;;;;;;;;;4790906;29;20055;-63
2023/04/25 09:42:13;;;;;;;2.60;1.20;;;;;;;;;;4785384;29;20060;-62
2023/04/25 09:44:47;;;;;;;3.90;1.50;;;;;;;;;;4783539;30;20435;-63
2023/04/25 09:47:18;;;;;;;1.95;1.13;;;;;;;;;;4783073;30;20457;-63
2023/04/25 09:49:48;;;;;;;3.80;1.27;;;;;;;;;;4788842;29;20051;-63
2023/04/25 09:52:22;;;;;;;2.95;1.20;;;;;;;;;;4806242;29;20184;-62
2023/04/25 09:55:03;;;;;;;2.78;1.23;;;;;;;;;;4801344;29;20181;-62
2023/04/25 09:57:39;;;;;;;4.78;1.30;;;;;;;;;;4778931;29;20070;-62
2023/04/25 10:00:12;;;;;;;3.50;1.60;;;;;;;;;;4797489;29;20062;-62
2023/04/25 10:02:44;;;;;;;3.55;1.60;;;;;;;;;;4801212;29;20518;-66
2023/04/25 10:05:32;;;;;;;4.68;1.17;;;;;;;;;;4800749;29;20066;-62
2023/04/25 10:08:07;;;;;;;2.88;1.40;;;;;;;;;;4796299;29;20142;-62
2023/04/25 10:10:38;;;;;;;5.38;1.33;;;;;;;;;;4795004;29;20065;-63
2023/04/25 10:13:09;;;;;;;4.95;1.70;;;;;;;;;;4817380;29;20539;-62
2023/04/25 10:15:40;;;;;;;4.13;1.83;;;;;;;;;;4819218;29;20093;-63
2023/04/25 10:18:11;;;;;;;4.63;1.20;;;;;;;;;;4813031;29;20066;-65
2023/04/25 10:20:41;;;;;;;3.25;1.10;;;;;;;;;;4830699;29;20045;-64
2023/04/25 10:23:14;;;;;;;4.10;1.33;;;;;;;;;;4807065;29;20058;-62
2023/04/25 10:25:46;;;;;;;2.28;1.30;;;;;;;;;;4848629;29;20068;-63
2023/04/25 10:28:16;;;;;;;3.05;1.27;;;;;;;;;;4905185;29;20053;-65
2023/04/25 10:31:02;;;;;;;6.22;1.52;;;;;;;;;;4888564;29;20060;-62
2023/04/25 10:33:43;;;;;;;2.13;1.13;;;;;;;;;;4861239;29;20060;-62
2023/04/25 10:36:17;;;;;;;2.63;1.10;;;;;;;;;;4896767;29;20493;-61
2023/04/25 10:38:52;;;;;;;5.85;1.30;;;;;;;;;;4928853;28;20074;-61
2023/04/25 10:41:22;;;;;;;2.83;1.20;;;;;;;;;;4962469;28;20073;-62
2023/04/25 10:44:03;;;;;;;2.63;1.33;;;;;;;;;;4945585;28;20070;-62
2023/04/25 10:46:35;;;;;;;5.25;2.50;;;;;;;;;;4953823;29;20118;-64
2023/04/25 10:49:08;;;;;;;8.68;1.98;;;;;;;;;;4956269;28;20055;-63
2023/04/25 10:51:43;;;;;;;6.72;2.55;;;;;;;;;;4958146;28;20123;-62
2023/04/25 10:54:19;;;;;;;7.28;2.95;;;;;;;;;;4940965;28;20047;-62
2023/04/25 10:56:51;;;;;;;5.72;2.55;;;;;;;;;;4973122;28;20054;-62
2023/04/25 10:59:25;;;;;;;9.50;3.00;;;;;;;;;;4940940;28;20062;-65
2023/04/25 11:01:56;;;;;;;4.95;2.67;;;;;;;;;;4940715;28;20494;-61
2023/04/25 11:04:31;;;;;;;5.38;2.40;;;;;;;;;;4972868;28;20046;-63
2023/04/25 11:07:08;;;;;;;12.60;4.28;;;;;;;;;;4972526;28;20051;-61
2023/04/25 11:09:41;;;;;;;10.77;3.50;;;;;;;;;;4940607;28;20558;-62
2023/04/25 11:12:12;;;;;;;4.47;2.00;;;;;;;;;;4973060;28;20051;-62
2023/04/25 11:14:43;;;;;;;4.43;1.40;;;;;;;;;;4972678;28;20577;-63
2023/04/25 11:17:14;;;;;;;3.45;1.75;;;;;;;;;;4940473;28;20085;-63
2023/04/25 11:19:48;;;;;;;4.50;1.70;;;;;;;;;;4972681;28;20050;-65
2023/04/25 11:22:21;;;;;;;5.50;1.40;;;;;;;;;;5023032;28;20057;-62
2023/04/25 11:24:51;;;;;;;6.97;2.70;;;;;;;;;;5033538;28;20064;-62
2023/04/25 11:27:22;;;;;;;4.80;2.42;;;;;;;;;;5033043;28;20383;-61
2023/04/25 11:29:52;;;;;;;7.45;2.70;;;;;;;;;;5033127;28;20458;-63
2023/04/25 11:32:21;;;;;;;5.60;2.40;;;;;;;;;;5031336;28;20073;-62
2023/04/25 11:34:53;;;;;;;6.15;2.83;;;;;;;;;;4982266;28;20053;-62
2023/04/25 11:37:24;;;;;;;8.05;2.95;;;;;;;;;;4944812;28;20623;-62
2023/04/25 11:39:55;;;;;;;12.20;3.35;;;;;;;;;;5032843;28;20037;-62
2023/04/25 11:42:25;;;;;;;6.60;3.22;;;;;;;;;;5009015;28;20056;-63
2023/04/25 11:44:56;;;;;;;7.63;3.35;;;;;;;;;;5033339;28;20041;-62
2023/04/25 11:47:32;;;;;;;6.10;3.70;;;;;;;;;;5033341;28;20370;-62
2023/04/25 11:50:05;;;;;;;3.95;1.63;;;;;;;;;;5030523;28;20486;-62
2023/04/25 11:52:39;;;;;;;;;;;;;;;;;;5033705;28;20049;-63
2023/04/25 11:55:14;;;;;;;3.90;1.80;;;;;;;;;;5030373;28;19936;-62
2023/04/25 11:57:46;;;;;;;2.00;0.95;;;;;;;;;;5014632;28;20064;-62
2023/04/25 12:00:21;;;;;;;3.75;0.98;;;;;;;;;;5033090;28;20045;-63
2023/04/25 12:02:57;;;;;;;2.97;1.08;;;;;;;;;;5032950;28;20045;-61
2023/04/25 12:05:33;;;;;;;2.53;1.13;;;;;;;;;;5032640;28;20048;-61
2023/04/25 12:08:14;;;;;;;4.20;1.08;;;;;;;;;;4981866;28;20057;-61
2023/04/25 12:10:46;;;;;;;4.80;1.20;;;;;;;;;;4982303;28;20611;-62
2023/04/25 12:13:24;;;;;;;2.58;1.00;;;;;;;;;;5014427;28;20717;-64
2023/04/25 12:15:56;;;;;;;2.78;1.45;;;;;;;;;;4999432;28;20065;-62
2023/04/25 12:18:30;;;;;;;2.67;1.08;;;;;;;;;;4997902;28;20556;-62
2023/04/25 12:21:00;;;;;;;2.53;0.93;;;;;;;;;;5032864;28;20045;-62
2023/04/25 12:23:30;;;;;;;4.65;3.28;;;;;;;;;;5013951;28;20181;-61
2023/04/25 12:26:02;;;;;;;4.07;1.30;;;;;;;;;;4997409;28;20050;-63
2023/04/25 12:28:33;;;;;;;2.38;1.15;;;;;;;;;;4964602;28;20401;-64
2023/04/25 12:31:04;;;;;;;2.17;1.15;;;;;;;;;;5013554;28;20056;-62
2023/04/25 12:33:36;;;;;;;2.50;1.20;;;;;;;;;;5032107;28;20041;-61
2023/04/25 12:36:11;;;;;;;3.95;1.63;;;;;;;;;;5031899;28;20045;-62
2023/04/25 12:38:42;;;;;;;4.70;1.50;;;;;;;;;;5031759;28;20053;-62
2023/04/25 12:41:12;;;;;;;5.45;1.65;;;;;;;;;;4997896;28;20050;-62
2023/04/25 12:43:43;;;;;;;3.35;1.27;;;;;;;;;;4996694;28;20053;-63
2023/04/25 12:46:13;;;;;;;2.40;1.50;;;;;;;;;;5031511;28;20390;-62
2023/04/25 12:48:42;;;;;;;2.80;1.30;;;;;;;;;;5031808;28;20057;-62
2023/04/25 12:51:13;;;;;;;3.42;1.60;;;;;;;;;;5032567;28;20060;-62
2023/04/25 12:53:43;;;;;;;4.88;1.63;;;;;;;;;;4986014;28;20402;-62
2023/04/25 12:56:13;;;;;;;4.38;1.38;;;;;;;;;;4973524;28;20095;-61
2023/04/25 12:58:44;;;;;;;3.42;1.63;;;;;;;;;;4971876;28;20042;-62
2023/04/25 13:01:14;;;;;;;4.05;1.67;;;;;;;;;;4988238;28;20054;-63
2023/04/25 13:03:44;;;;;;;4.50;1.90;;;;;;;;;;4988074;28;20046;-62
2023/04/25 13:06:16;;;;;;;3.15;1.40;;;;;;;;;;4957886;28;20217;-63
2023/04/25 13:08:46;;;;;;;8.35;1.50;;;;;;;;;;4990451;28;20749;-61
2023/04/25 13:11:16;;;;;;;4.35;1.48;;;;;;;;;;4957740;28;20193;-62
2023/04/25 13:13:46;;;;;;;5.20;2.17;;;;;;;;;;4957193;28;20049;-62
2023/04/25 13:16:17;;;;;;;4.13;1.90;;;;;;;;;;4987852;28;20054;-61
2023/04/25 13:18:47;;;;;;;6.32;1.83;;;;;;;;;;4879675;28;20054;-61
2023/04/25 13:21:18;;;;;;;5.00;2.28;;;;;;;;;;4950891;29;20047;-64
2023/04/25 13:23:50;;;;;;;4.50;1.98;;;;;;;;;;4920434;29;20070;-63
2023/04/25 13:26:21;;;;;;;3.97;1.48;;;;;;;;;;4950978;29;20069;-61
2023/04/25 13:28:51;;;;;;;5.57;2.45;;;;;;;;;;4897666;29;20067;-62
2023/04/25 13:31:21;;;;;;;7.25;3.25;;;;;;;;;;4931743;29;20066;-63
2023/04/25 13:33:51;;;;;;;4.60;2.10;;;;;;;;;;4934329;29;20054;-62
2023/04/25 13:36:22;;;;;;;7.07;2.22;;;;;;;;;;4903322;29;20710;-61
2023/04/25 13:38:52;;;;;;;4.18;2.25;;;;;;;;;;4918484;29;20408;-61
2023/04/25 13:41:22;;;;;;;4.80;2.47;;;;;;;;;;4918868;29;20063;-62
2023/04/25 13:43:53;;;;;;;5.45;2.83;;;;;;;;;;4918912;29;20047;-61
2023/04/25 13:46:23;;;;;;;6.00;2.08;;;;;;;;;;4918761;29;20059;-64
2023/04/25 13:49:13;;;;;;;7.38;2.40;;;;;;;;;;4950501;29;20419;-63
2023/04/25 13:51:43;;;;;;;7.20;2.50;;;;;;;;;;4950797;29;20051;-64
2023/04/25 13:54:13;;;;;;;9.60;2.53;;;;;;;;;;4950681;29;20168;-62
2023/04/25 13:56:44;;;;;;;6.15;2.25;;;;;;;;;;4902975;29;20085;-62
2023/04/25 13:59:14;;;;;;;9.10;3.13;;;;;;;;;;4921926;28;20058;-62
2023/04/25 14:01:47;;;;;;;6.95;3.72;;;;;;;;;;4958232;28;20163;-63
2023/04/25 14:04:17;;;;;;;6.70;2.80;;;;;;;;;;4950783;29;20058;-64
2023/04/25 14:06:47;;;;;;;6.45;2.70;;;;;;;;;;4976693;28;20058;-62
2023/04/25 14:09:19;;;;;;;4.97;2.33;;;;;;;;;;4998927;28;20054;-62
2023/04/25 14:11:49;;;;;;;4.82;2.45;;;;;;;;;;5010053;28;20045;-62
2023/04/25 14:14:20;;;;;;;5.97;3.20;;;;;;;;;;4974370;28;20423;-63
2023/04/25 14:16:53;;;;;;;6.20;2.10;;;;;;;;;;4963861;28;20050;-62
2023/04/25 14:19:24;;;;;;;9.80;3.40;;;;;;;;;;4919426;29;20054;-62
2023/04/25 14:21:54;;;;;;;4.57;2.75;;;;;;;;;;4894486;29;20068;-65
2023/04/25 14:24:25;;;;;;;5.57;3.45;;;;;;;;;;4912441;29;20089;-63
2023/04/25 14:26:55;;;;;;;4.70;3.22;;;;;;;;;;4912154;29;20409;-63
2023/04/25 14:29:26;;;;;;;6.00;2.42;;;;;;;;;;4912238;29;20052;-62
2023/04/25 14:31:57;;;;;;;5.57;2.53;;;;;;;;;;4912294;29;20059;-62
2023/04/25 14:34:27;;;;;;;3.95;2.25;;;;;;;;;;4881021;29;20413;-62
2023/04/25 14:36:57;;;;;;;8.98;2.72;;;;;;;;;;4912254;29;20064;-62
2023/04/25 14:39:27;;;;;;;7.45;2.47;;;;;;;;;;4912341;29;20052;-62
2023/04/25 14:41:57;;;;;;;5.32;2.60;;;;;;;;;;4892354;29;20093;-62
2023/04/25 14:44:27;;;;;;;5.55;2.45;;;;;;;;;;4893205;29;20197;-62
2023/04/25 14:46:57;;;;;;;6.38;2.22;;;;;;;;;;4893042;29;20061;-62
2023/04/25 14:49:29;;;;;;;4.75;2.03;;;;;;;;;;4892919;29;20049;-63
2023/04/25 14:51:59;;;;;;;8.07;2.25;;;;;;;;;;4892293;29;20082;-63
2023/04/25 14:54:29;;;;;;;5.68;1.50;;;;;;;;;;4912109;29;20063;-64
2023/04/25 14:57:01;;;;;;;5.82;2.20;;;;;;;;;;4928446;28;20423;-63
2023/04/25 14:59:31;;;;;;;3.17;1.80;;;;;;;;;;4957093;28;20069;-64
2023/04/25 15:02:01;;;;;;;4.95;2.20;;;;;;;;;;5002103;28;20506;-64
2023/04/25 15:04:31;;;;;;;4.30;1.75;;;;;;;;;;5008515;28;20513;-63
2023/04/25 15:07:02;;;;;;;4.78;1.63;;;;;;;;;;5008162;28;20053;-63
2023/04/25 15:09:32;;;;;;;3.88;1.55;;;;;;;;;;4968619;28;20058;-62
2023/04/25 15:12:03;;;;;;;4.65;2.00;;;;;;;;;;4991868;28;20572;-63
2023/04/25 15:14:34;;;;;;;3.88;1.95;;;;;;;;;;4991597;28;20065;-63
2023/04/25 15:17:06;;;;;;;3.63;1.85;;;;;;;;;;5007768;28;20057;-63
2023/04/25 15:19:36;;;;;;;3.55;1.75;;;;;;;;;;5021310;28;20060;-63
2023/04/25 15:22:06;;;;;;;4.70;1.90;;;;;;;;;;4992694;28;20078;-62